Prague Express — DGZR2 — position and weather

sailwx.info

Track history (hours):
 
Tides and Currents Weather Stations Pressure Air Temp Water Temp Dewpoint Dewpoint Depression Visibility Wind Speed Wind Dir Waves Ship Positions

Prague Express

Last reported at 2018-Jun-18 09:12 UTC. Time now 2018-Jun-20 16:55 UTC.
Position N 30°33' E 122°19'.

Length 335 m; draft 10.8 m.

Type: Cargo ship. MMSI: 218361000.

Date/timePositionNaut miles runAvg speedWind from/ knotsBaromVisibWave heightAir tempDewpointWater temp
2018-Jun-18 09:12N 30°33' E 122°19'413.3
2018-Jun-18 08:56N 30°33' E 122°15'615.0
2018-Jun-18 08:30N 30°35' E 122°08'5 0.4
2018-Jun-17 22:07N 30°37' E 122°03'0 0.7
2018-Jun-17 21:59N 30°37' E 122°03'3 5.8
2018-Jun-17 21:29N 30°36' E 122°06'713.1
2018-Jun-17 20:59N 30°34' E 122°13'4 7.2
2018-Jun-17 20:23N 30°33' E 122°18'3 7.3
2018-Jun-17 19:57N 30°33' E 122°22'  
2018-Jun-13 08:11N 35°59' E 120°31'412.0
2018-Jun-13 07:48N 35°60' E 120°25'7 9.1
2018-Jun-13 07:03N 36°02' E 120°17'1 5.3
2018-Jun-13 06:50N 36°02' E 120°16'3 5.2
2018-Jun-13 06:17N 36°01' E 120°13'0 0.2
2018-Jun-13 05:59N 36°01' E 120°12'0 0.0
2018-Jun-13 04:54N 36°01' E 120°12'0 0.0
2018-Jun-13 04:20N 36°01' E 120°12'0 0.0
2018-Jun-13 03:59N 36°01' E 120°12'0 0.0
2018-Jun-13 03:23N 36°01' E 120°12'0 0.0
2018-Jun-13 02:08N 36°01' E 120°12'0 0.0
2018-Jun-13 01:38N 36°01' E 120°12'0 0.0
2018-Jun-13 01:17N 36°01' E 120°12'0 0.0
2018-Jun-13 00:08N 36°01' E 120°12'0 0.0
2018-Jun-12 23:50N 36°01' E 120°12'0 0.0
2018-Jun-12 23:29N 36°01' E 120°12'0 0.0
2018-Jun-12 22:54N 36°01' E 120°12'0 0.0
2018-Jun-12 22:20N 36°01' E 120°12'  
2018-Jun-09 15:24N 31°22' E 123°20'1111.1
2018-Jun-09 14:23N 31°11' E 123°20'411.1
2018-Jun-09 14:00N 31°06' E 123°20'1011.4
2018-Jun-09 13:08N 30°57' E 123°20'511.4
2018-Jun-09 12:44N 30°52' E 123°20'2511.5
2018-Jun-09 10:30N 30°26' E 123°19'611.6
2018-Jun-09 10:00N 30°21' E 123°19'611.8
2018-Jun-09 09:29N 30°15' E 123°19'611.9
2018-Jun-09 09:00N 30°09' E 123°18'1111.6
2018-Jun-09 08:03N 29°58' E 123°16'011.1
2018-Jun-09 08:00N 29°58' E 123°16'  
Track history (hours):
 
Tides and Currents Weather Stations Pressure Air Temp Water Temp Dewpoint Dewpoint Depression Visibility Wind Speed Wind Dir Waves Ship Positions

Prague Express

Last reported at 2018-Jun-18 09:12 UTC. Time now 2018-Jun-20 16:55 UTC.
Position N 30°33' E 122°19'.

Length 335 m; draft 10.8 m.

Type: Cargo ship. MMSI: 218361000.

Date/timePositionNaut miles runAvg speedWind from/ knotsBaromVisibWave heightAir tempDewpointWater temp
2018-Jun-18 09:12N 30°33' E 122°19'413.3
2018-Jun-18 08:56N 30°33' E 122°15'615.0
2018-Jun-18 08:30N 30°35' E 122°08'5 0.4
2018-Jun-17 22:07N 30°37' E 122°03'0 0.7
2018-Jun-17 21:59N 30°37' E 122°03'3 5.8
2018-Jun-17 21:29N 30°36' E 122°06'713.1
2018-Jun-17 20:59N 30°34' E 122°13'4 7.2
2018-Jun-17 20:23N 30°33' E 122°18'3 7.3
2018-Jun-17 19:57N 30°33' E 122°22'  
2018-Jun-13 08:11N 35°59' E 120°31'412.0
2018-Jun-13 07:48N 35°60' E 120°25'7 9.1
2018-Jun-13 07:03N 36°02' E 120°17'1 5.3
2018-Jun-13 06:50N 36°02' E 120°16'3 5.2
2018-Jun-13 06:17N 36°01' E 120°13'0 0.2
2018-Jun-13 05:59N 36°01' E 120°12'0 0.0
2018-Jun-13 04:54N 36°01' E 120°12'0 0.0
2018-Jun-13 04:20N 36°01' E 120°12'0 0.0
2018-Jun-13 03:59N 36°01' E 120°12'0 0.0
2018-Jun-13 03:23N 36°01' E 120°12'0 0.0
2018-Jun-13 02:08N 36°01' E 120°12'0 0.0
2018-Jun-13 01:38N 36°01' E 120°12'0 0.0
2018-Jun-13 01:17N 36°01' E 120°12'0 0.0
2018-Jun-13 00:08N 36°01' E 120°12'0 0.0
2018-Jun-12 23:50N 36°01' E 120°12'0 0.0
2018-Jun-12 23:29N 36°01' E 120°12'0 0.0
2018-Jun-12 22:54N 36°01' E 120°12'0 0.0
2018-Jun-12 22:20N 36°01' E 120°12'  
2018-Jun-09 15:24N 31°22' E 123°20'1111.1
2018-Jun-09 14:23N 31°11' E 123°20'411.1
2018-Jun-09 14:00N 31°06' E 123°20'1011.4
2018-Jun-09 13:08N 30°57' E 123°20'511.4
2018-Jun-09 12:44N 30°52' E 123°20'2511.5
2018-Jun-09 10:30N 30°26' E 123°19'611.6
2018-Jun-09 10:00N 30°21' E 123°19'611.8
2018-Jun-09 09:29N 30°15' E 123°19'611.9
2018-Jun-09 09:00N 30°09' E 123°18'1111.6
2018-Jun-09 08:03N 29°58' E 123°16'011.1
2018-Jun-09 08:00N 29°58' E 123°16'  

Dump ship's entire track history